sensor_id;sensor_type;location;lat;lon;timestamp;P1;durP1;ratioP1;P2;durP2;ratioP2
43580;SDS011;29175;51.030;4.606;2023-08-06T00:00:28;8.35;;;2.20;;
43580;SDS011;29175;51.030;4.606;2023-08-06T00:02:55;8.95;;;2.08;;
43580;SDS011;29175;51.030;4.606;2023-08-06T00:05:21;6.63;;;1.92;;
43580;SDS011;29175;51.030;4.606;2023-08-06T00:07:48;8.38;;;2.25;;
43580;SDS011;29175;51.030;4.606;2023-08-06T00:10:15;10.40;;;2.30;;
43580;SDS011;29175;51.030;4.606;2023-08-06T00:12:44;7.25;;;2.00;;
43580;SDS011;29175;51.030;4.606;2023-08-06T00:15:10;5.72;;;1.95;;
43580;SDS011;29175;51.030;4.606;2023-08-06T00:17:37;7.30;;;1.98;;
43580;SDS011;29175;51.030;4.606;2023-08-06T00:20:03;5.93;;;1.80;;
43580;SDS011;29175;51.030;4.606;2023-08-06T00:22:32;8.80;;;1.67;;
43580;SDS011;29175;51.030;4.606;2023-08-06T00:25:02;9.35;;;1.98;;
43580;SDS011;29175;51.030;4.606;2023-08-06T00:27:32;9.95;;;2.15;;
43580;SDS011;29175;51.030;4.606;2023-08-06T00:29:58;9.80;;;2.05;;
43580;SDS011;29175;51.030;4.606;2023-08-06T00:32:24;10.13;;;1.88;;
43580;SDS011;29175;51.030;4.606;2023-08-06T00:34:49;11.18;;;2.17;;
43580;SDS011;29175;51.030;4.606;2023-08-06T00:37:16;10.15;;;2.65;;
43580;SDS011;29175;51.030;4.606;2023-08-06T00:39:43;8.90;;;2.08;;
43580;SDS011;29175;51.030;4.606;2023-08-06T00:42:09;5.38;;;1.90;;
43580;SDS011;29175;51.030;4.606;2023-08-06T00:44:37;4.63;;;2.10;;
43580;SDS011;29175;51.030;4.606;2023-08-06T00:47:04;10.70;;;2.30;;
43580;SDS011;29175;51.030;4.606;2023-08-06T00:49:31;13.85;;;2.30;;
43580;SDS011;29175;51.030;4.606;2023-08-06T00:51:57;4.90;;;1.60;;
43580;SDS011;29175;51.030;4.606;2023-08-06T00:54:23;6.63;;;2.00;;
43580;SDS011;29175;51.030;4.606;2023-08-06T00:56:50;7.80;;;2.00;;
43580;SDS011;29175;51.030;4.606;2023-08-06T00:59:16;9.75;;;2.30;;
43580;SDS011;29175;51.030;4.606;2023-08-06T01:01:42;12.77;;;1.90;;
43580;SDS011;29175;51.030;4.606;2023-08-06T01:04:08;9.07;;;2.00;;
43580;SDS011;29175;51.030;4.606;2023-08-06T01:09:19;7.53;;;2.15;;
43580;SDS011;29175;51.030;4.606;2023-08-06T01:12:54;5.85;;;2.00;;
43580;SDS011;29175;51.030;4.606;2023-08-06T01:17:36;9.77;;;2.20;;
43580;SDS011;29175;51.030;4.606;2023-08-06T01:20:02;8.10;;;2.22;;
43580;SDS011;29175;51.030;4.606;2023-08-06T01:22:28;6.65;;;1.92;;
43580;SDS011;29175;51.030;4.606;2023-08-06T01:24:55;34.25;;;3.00;;
43580;SDS011;29175;51.030;4.606;2023-08-06T01:27:32;0.35;;;0.35;;
43580;SDS011;29175;51.030;4.606;2023-08-06T01:32:58;0.20;;;0.20;;
43580;SDS011;29175;51.030;4.606;2023-08-06T01:35:26;0.20;;;0.20;;
43580;SDS011;29175;51.030;4.606;2023-08-06T01:37:54;0.20;;;0.20;;
43580;SDS011;29175;51.030;4.606;2023-08-06T01:40:21;0.20;;;0.20;;
43580;SDS011;29175;51.030;4.606;2023-08-06T01:42:47;0.30;;;0.30;;
43580;SDS011;29175;51.030;4.606;2023-08-06T01:45:14;0.20;;;0.20;;
43580;SDS011;29175;51.030;4.606;2023-08-06T01:47:39;0.20;;;0.20;;
43580;SDS011;29175;51.030;4.606;2023-08-06T01:50:05;0.20;;;0.20;;
43580;SDS011;29175;51.030;4.606;2023-08-06T01:52:32;0.20;;;0.20;;
43580;SDS011;29175;51.030;4.606;2023-08-06T01:54:58;0.32;;;0.32;;
43580;SDS011;29175;51.030;4.606;2023-08-06T01:57:24;0.20;;;0.20;;
43580;SDS011;29175;51.030;4.606;2023-08-06T01:59:50;0.35;;;0.35;;
43580;SDS011;29175;51.030;4.606;2023-08-06T02:02:16;0.57;;;0.57;;
43580;SDS011;29175;51.030;4.606;2023-08-06T02:04:41;0.20;;;0.20;;
43580;SDS011;29175;51.030;4.606;2023-08-06T02:07:07;0.30;;;0.30;;
43580;SDS011;29175;51.030;4.606;2023-08-06T02:09:33;0.45;;;0.45;;
43580;SDS011;29175;51.030;4.606;2023-08-06T02:12:00;0.20;;;0.20;;
43580;SDS011;29175;51.030;4.606;2023-08-06T02:14:28;0.20;;;0.20;;
43580;SDS011;29175;51.030;4.606;2023-08-06T02:16:55;16.40;;;1.38;;
43580;SDS011;29175;51.030;4.606;2023-08-06T02:19:22;0.20;;;0.20;;
43580;SDS011;29175;51.030;4.606;2023-08-06T02:21:48;0.20;;;0.20;;
43580;SDS011;29175;51.030;4.606;2023-08-06T02:24:15;0.63;;;0.63;;
43580;SDS011;29175;51.030;4.606;2023-08-06T02:26:41;0.20;;;0.20;;
43580;SDS011;29175;51.030;4.606;2023-08-06T02:29:06;0.20;;;0.20;;
43580;SDS011;29175;51.030;4.606;2023-08-06T02:31:32;1.00;;;1.00;;
43580;SDS011;29175;51.030;4.606;2023-08-06T02:33:58;0.40;;;0.40;;
43580;SDS011;29175;51.030;4.606;2023-08-06T02:36:24;0.20;;;0.20;;
43580;SDS011;29175;51.030;4.606;2023-08-06T02:38:50;0.20;;;0.20;;
43580;SDS011;29175;51.030;4.606;2023-08-06T02:41:15;8.45;;;2.00;;
43580;SDS011;29175;51.030;4.606;2023-08-06T02:43:42;1.23;;;1.05;;
43580;SDS011;29175;51.030;4.606;2023-08-06T02:46:08;0.20;;;0.20;;
43580;SDS011;29175;51.030;4.606;2023-08-06T02:48:34;0.32;;;0.32;;
43580;SDS011;29175;51.030;4.606;2023-08-06T02:51:00;2.90;;;0.60;;
43580;SDS011;29175;51.030;4.606;2023-08-06T02:53:26;1.52;;;0.93;;
43580;SDS011;29175;51.030;4.606;2023-08-06T02:55:53;0.30;;;0.30;;
43580;SDS011;29175;51.030;4.606;2023-08-06T02:58:19;0.43;;;0.43;;
43580;SDS011;29175;51.030;4.606;2023-08-06T03:01:05;0.30;;;0.30;;
43580;SDS011;29175;51.030;4.606;2023-08-06T03:03:32;4.25;;;0.60;;
43580;SDS011;29175;51.030;4.606;2023-08-06T03:05:58;0.30;;;0.30;;
43580;SDS011;29175;51.030;4.606;2023-08-06T03:08:24;0.43;;;0.43;;
43580;SDS011;29175;51.030;4.606;2023-08-06T03:10:51;0.20;;;0.20;;
43580;SDS011;29175;51.030;4.606;2023-08-06T03:13:17;1.05;;;1.00;;
43580;SDS011;29175;51.030;4.606;2023-08-06T03:15:55;0.30;;;0.30;;
43580;SDS011;29175;51.030;4.606;2023-08-06T03:18:22;0.22;;;0.22;;
43580;SDS011;29175;51.030;4.606;2023-08-06T03:20:52;0.43;;;0.43;;
43580;SDS011;29175;51.030;4.606;2023-08-06T03:23:17;0.20;;;0.20;;
43580;SDS011;29175;51.030;4.606;2023-08-06T03:25:43;0.60;;;0.60;;
43580;SDS011;29175;51.030;4.606;2023-08-06T03:28:10;0.30;;;0.30;;
43580;SDS011;29175;51.030;4.606;2023-08-06T03:30:38;1.00;;;0.60;;
43580;SDS011;29175;51.030;4.606;2023-08-06T03:33:04;0.20;;;0.20;;
43580;SDS011;29175;51.030;4.606;2023-08-06T03:35:29;0.30;;;0.30;;
43580;SDS011;29175;51.030;4.606;2023-08-06T03:37:56;1.42;;;1.02;;
43580;SDS011;29175;51.030;4.606;2023-08-06T03:40:23;0.68;;;0.68;;
43580;SDS011;29175;51.030;4.606;2023-08-06T03:42:50;0.73;;;0.55;;
43580;SDS011;29175;51.030;4.606;2023-08-06T03:45:15;0.20;;;0.20;;
43580;SDS011;29175;51.030;4.606;2023-08-06T03:47:42;1.98;;;1.30;;
43580;SDS011;29175;51.030;4.606;2023-08-06T03:50:08;0.57;;;0.57;;
43580;SDS011;29175;51.030;4.606;2023-08-06T03:52:36;0.30;;;0.30;;
43580;SDS011;29175;51.030;4.606;2023-08-06T03:55:03;0.45;;;0.45;;
43580;SDS011;29175;51.030;4.606;2023-08-06T03:57:29;1.58;;;1.48;;
43580;SDS011;29175;51.030;4.606;2023-08-06T03:59:55;0.65;;;0.65;;
43580;SDS011;29175;51.030;4.606;2023-08-06T04:02:22;0.80;;;0.80;;
43580;SDS011;29175;51.030;4.606;2023-08-06T04:04:48;0.47;;;0.47;;
43580;SDS011;29175;51.030;4.606;2023-08-06T04:07:14;3.30;;;1.30;;
43580;SDS011;29175;51.030;4.606;2023-08-06T04:09:59;0.30;;;0.30;;
43580;SDS011;29175;51.030;4.606;2023-08-06T04:12:27;9.68;;;0.50;;
43580;SDS011;29175;51.030;4.606;2023-08-06T04:14:54;0.75;;;0.75;;
43580;SDS011;29175;51.030;4.606;2023-08-06T04:17:21;0.40;;;0.40;;
43580;SDS011;29175;51.030;4.606;2023-08-06T04:19:49;3.75;;;1.08;;
43580;SDS011;29175;51.030;4.606;2023-08-06T04:22:16;2.83;;;1.48;;
43580;SDS011;29175;51.030;4.606;2023-08-06T04:24:42;0.80;;;0.68;;
43580;SDS011;29175;51.030;4.606;2023-08-06T04:27:11;1.95;;;1.27;;
43580;SDS011;29175;51.030;4.606;2023-08-06T04:29:37;0.30;;;0.30;;
43580;SDS011;29175;51.030;4.606;2023-08-06T04:32:05;0.28;;;0.28;;
43580;SDS011;29175;51.030;4.606;2023-08-06T04:34:32;0.30;;;0.30;;
43580;SDS011;29175;51.030;4.606;2023-08-06T04:36:59;0.30;;;0.30;;
43580;SDS011;29175;51.030;4.606;2023-08-06T04:39:26;0.20;;;0.20;;
43580;SDS011;29175;51.030;4.606;2023-08-06T04:41:53;0.30;;;0.30;;
43580;SDS011;29175;51.030;4.606;2023-08-06T04:44:20;0.30;;;0.30;;
43580;SDS011;29175;51.030;4.606;2023-08-06T04:46:46;0.20;;;0.20;;
43580;SDS011;29175;51.030;4.606;2023-08-06T04:49:11;0.20;;;0.20;;
43580;SDS011;29175;51.030;4.606;2023-08-06T04:51:37;0.30;;;0.30;;
43580;SDS011;29175;51.030;4.606;2023-08-06T04:54:04;0.30;;;0.30;;
43580;SDS011;29175;51.030;4.606;2023-08-06T04:56:30;0.30;;;0.30;;
43580;SDS011;29175;51.030;4.606;2023-08-06T04:58:57;0.30;;;0.30;;
43580;SDS011;29175;51.030;4.606;2023-08-06T05:01:23;0.40;;;0.40;;
43580;SDS011;29175;51.030;4.606;2023-08-06T05:03:49;0.40;;;0.40;;
43580;SDS011;29175;51.030;4.606;2023-08-06T05:06:15;5.88;;;0.82;;
43580;SDS011;29175;51.030;4.606;2023-08-06T05:08:40;0.30;;;0.30;;
43580;SDS011;29175;51.030;4.606;2023-08-06T05:11:06;0.40;;;0.40;;
43580;SDS011;29175;51.030;4.606;2023-08-06T05:13:32;0.60;;;0.60;;
43580;SDS011;29175;51.030;4.606;2023-08-06T05:15:57;0.40;;;0.40;;
43580;SDS011;29175;51.030;4.606;2023-08-06T05:18:23;0.32;;;0.32;;
43580;SDS011;29175;51.030;4.606;2023-08-06T05:20:49;0.43;;;0.43;;
43580;SDS011;29175;51.030;4.606;2023-08-06T05:23:15;0.38;;;0.38;;
43580;SDS011;29175;51.030;4.606;2023-08-06T05:25:41;0.50;;;0.50;;
43580;SDS011;29175;51.030;4.606;2023-08-06T05:28:07;0.30;;;0.30;;
43580;SDS011;29175;51.030;4.606;2023-08-06T05:30:33;0.43;;;0.43;;
43580;SDS011;29175;51.030;4.606;2023-08-06T05:33:02;1.55;;;1.48;;
43580;SDS011;29175;51.030;4.606;2023-08-06T05:35:28;0.50;;;0.50;;
43580;SDS011;29175;51.030;4.606;2023-08-06T05:37:53;0.45;;;0.45;;
43580;SDS011;29175;51.030;4.606;2023-08-06T05:40:20;0.40;;;0.40;;
43580;SDS011;29175;51.030;4.606;2023-08-06T05:42:46;0.30;;;0.30;;
43580;SDS011;29175;51.030;4.606;2023-08-06T05:45:12;0.30;;;0.30;;
43580;SDS011;29175;51.030;4.606;2023-08-06T05:47:37;0.30;;;0.30;;
43580;SDS011;29175;51.030;4.606;2023-08-06T05:50:04;0.30;;;0.30;;
43580;SDS011;29175;51.030;4.606;2023-08-06T05:52:31;0.30;;;0.30;;
43580;SDS011;29175;51.030;4.606;2023-08-06T05:54:57;0.65;;;0.65;;
43580;SDS011;29175;51.030;4.606;2023-08-06T05:57:23;0.30;;;0.30;;
43580;SDS011;29175;51.030;4.606;2023-08-06T05:59:49;0.55;;;0.55;;
43580;SDS011;29175;51.030;4.606;2023-08-06T06:02:15;0.30;;;0.30;;
43580;SDS011;29175;51.030;4.606;2023-08-06T06:04:43;0.30;;;0.30;;
43580;SDS011;29175;51.030;4.606;2023-08-06T06:07:10;0.50;;;0.50;;
43580;SDS011;29175;51.030;4.606;2023-08-06T06:09:36;0.40;;;0.40;;
43580;SDS011;29175;51.030;4.606;2023-08-06T06:12:02;0.65;;;0.65;;
43580;SDS011;29175;51.030;4.606;2023-08-06T06:14:28;0.40;;;0.40;;
43580;SDS011;29175;51.030;4.606;2023-08-06T06:16:55;0.52;;;0.52;;
43580;SDS011;29175;51.030;4.606;2023-08-06T06:19:26;0.45;;;0.45;;
43580;SDS011;29175;51.030;4.606;2023-08-06T06:21:52;0.30;;;0.30;;
43580;SDS011;29175;51.030;4.606;2023-08-06T06:24:18;0.60;;;0.60;;
43580;SDS011;29175;51.030;4.606;2023-08-06T06:26:46;0.30;;;0.30;;
43580;SDS011;29175;51.030;4.606;2023-08-06T06:29:12;0.47;;;0.47;;
43580;SDS011;29175;51.030;4.606;2023-08-06T06:31:37;0.30;;;0.30;;
43580;SDS011;29175;51.030;4.606;2023-08-06T06:34:04;0.30;;;0.30;;
43580;SDS011;29175;51.030;4.606;2023-08-06T06:36:32;0.30;;;0.30;;
43580;SDS011;29175;51.030;4.606;2023-08-06T06:38:58;0.68;;;0.68;;
43580;SDS011;29175;51.030;4.606;2023-08-06T06:41:25;0.50;;;0.50;;
43580;SDS011;29175;51.030;4.606;2023-08-06T06:43:53;0.30;;;0.30;;
43580;SDS011;29175;51.030;4.606;2023-08-06T06:46:19;0.32;;;0.32;;
43580;SDS011;29175;51.030;4.606;2023-08-06T06:48:45;4.90;;;1.25;;
43580;SDS011;29175;51.030;4.606;2023-08-06T06:51:10;0.30;;;0.30;;
43580;SDS011;29175;51.030;4.606;2023-08-06T06:53:37;0.30;;;0.30;;
43580;SDS011;29175;51.030;4.606;2023-08-06T06:56:04;1.45;;;0.82;;
43580;SDS011;29175;51.030;4.606;2023-08-06T06:58:30;1.95;;;1.30;;
43580;SDS011;29175;51.030;4.606;2023-08-06T07:03:26;0.40;;;0.40;;
43580;SDS011;29175;51.030;4.606;2023-08-06T07:05:56;0.40;;;0.40;;
43580;SDS011;29175;51.030;4.606;2023-08-06T07:08:25;0.45;;;0.45;;
43580;SDS011;29175;51.030;4.606;2023-08-06T07:10:59;0.30;;;0.30;;
43580;SDS011;29175;51.030;4.606;2023-08-06T07:15:56;0.25;;;0.25;;
43580;SDS011;29175;51.030;4.606;2023-08-06T07:18:23;0.77;;;0.77;;
43580;SDS011;29175;51.030;4.606;2023-08-06T07:23:23;0.40;;;0.40;;
43580;SDS011;29175;51.030;4.606;2023-08-06T07:25:51;1.30;;;1.20;;
43580;SDS011;29175;51.030;4.606;2023-08-06T07:28:17;0.25;;;0.25;;
43580;SDS011;29175;51.030;4.606;2023-08-06T07:30:43;0.50;;;0.50;;
43580;SDS011;29175;51.030;4.606;2023-08-06T07:33:11;0.30;;;0.30;;
43580;SDS011;29175;51.030;4.606;2023-08-06T07:35:37;0.40;;;0.40;;
43580;SDS011;29175;51.030;4.606;2023-08-06T07:38:04;0.30;;;0.30;;
43580;SDS011;29175;51.030;4.606;2023-08-06T07:40:30;0.30;;;0.30;;
43580;SDS011;29175;51.030;4.606;2023-08-06T07:42:57;0.35;;;0.35;;
43580;SDS011;29175;51.030;4.606;2023-08-06T07:45:23;6.75;;;3.60;;
43580;SDS011;29175;51.030;4.606;2023-08-06T07:47:49;0.38;;;0.38;;
43580;SDS011;29175;51.030;4.606;2023-08-06T07:50:16;0.30;;;0.30;;
43580;SDS011;29175;51.030;4.606;2023-08-06T07:52:41;0.30;;;0.30;;
43580;SDS011;29175;51.030;4.606;2023-08-06T07:55:07;0.30;;;0.30;;
43580;SDS011;29175;51.030;4.606;2023-08-06T07:57:33;0.30;;;0.30;;
43580;SDS011;29175;51.030;4.606;2023-08-06T07:59:59;0.30;;;0.30;;
43580;SDS011;29175;51.030;4.606;2023-08-06T08:02:26;0.30;;;0.30;;
43580;SDS011;29175;51.030;4.606;2023-08-06T08:04:52;0.30;;;0.30;;
43580;SDS011;29175;51.030;4.606;2023-08-06T08:07:18;0.28;;;0.28;;
43580;SDS011;29175;51.030;4.606;2023-08-06T08:09:44;0.20;;;0.20;;
43580;SDS011;29175;51.030;4.606;2023-08-06T08:12:10;0.30;;;0.30;;
43580;SDS011;29175;51.030;4.606;2023-08-06T08:14:35;0.30;;;0.30;;
43580;SDS011;29175;51.030;4.606;2023-08-06T08:17:02;0.30;;;0.30;;
43580;SDS011;29175;51.030;4.606;2023-08-06T08:19:29;0.47;;;0.47;;
43580;SDS011;29175;51.030;4.606;2023-08-06T08:21:55;0.20;;;0.20;;
43580;SDS011;29175;51.030;4.606;2023-08-06T08:24:21;0.20;;;0.20;;
43580;SDS011;29175;51.030;4.606;2023-08-06T08:26:51;0.30;;;0.30;;
43580;SDS011;29175;51.030;4.606;2023-08-06T08:29:17;0.40;;;0.40;;
43580;SDS011;29175;51.030;4.606;2023-08-06T08:31:42;0.47;;;0.47;;
43580;SDS011;29175;51.030;4.606;2023-08-06T08:34:09;0.50;;;0.50;;
43580;SDS011;29175;51.030;4.606;2023-08-06T08:36:35;0.30;;;0.30;;
43580;SDS011;29175;51.030;4.606;2023-08-06T08:39:01;0.73;;;0.73;;
43580;SDS011;29175;51.030;4.606;2023-08-06T08:41:30;0.30;;;0.30;;
43580;SDS011;29175;51.030;4.606;2023-08-06T08:43:58;0.30;;;0.30;;
43580;SDS011;29175;51.030;4.606;2023-08-06T08:46:26;0.30;;;0.30;;
43580;SDS011;29175;51.030;4.606;2023-08-06T08:48:53;0.30;;;0.30;;
43580;SDS011;29175;51.030;4.606;2023-08-06T08:51:19;0.52;;;0.52;;
43580;SDS011;29175;51.030;4.606;2023-08-06T08:53:45;0.30;;;0.30;;
43580;SDS011;29175;51.030;4.606;2023-08-06T08:56:15;0.30;;;0.30;;
43580;SDS011;29175;51.030;4.606;2023-08-06T08:58:41;0.30;;;0.30;;
43580;SDS011;29175;51.030;4.606;2023-08-06T09:01:07;0.30;;;0.30;;
43580;SDS011;29175;51.030;4.606;2023-08-06T09:03:34;0.50;;;0.50;;
43580;SDS011;29175;51.030;4.606;2023-08-06T09:06:01;0.30;;;0.30;;
43580;SDS011;29175;51.030;4.606;2023-08-06T09:08:36;0.38;;;0.38;;
43580;SDS011;29175;51.030;4.606;2023-08-06T09:11:15;0.30;;;0.30;;
43580;SDS011;29175;51.030;4.606;2023-08-06T09:13:42;0.60;;;0.60;;
43580;SDS011;29175;51.030;4.606;2023-08-06T09:16:08;0.30;;;0.30;;
43580;SDS011;29175;51.030;4.606;2023-08-06T09:18:33;0.30;;;0.30;;
43580;SDS011;29175;51.030;4.606;2023-08-06T09:20:59;0.30;;;0.30;;
43580;SDS011;29175;51.030;4.606;2023-08-06T09:23:28;0.73;;;0.73;;
43580;SDS011;29175;51.030;4.606;2023-08-06T09:25:55;0.75;;;0.75;;
43580;SDS011;29175;51.030;4.606;2023-08-06T09:28:22;0.40;;;0.40;;
43580;SDS011;29175;51.030;4.606;2023-08-06T09:30:49;0.30;;;0.30;;
43580;SDS011;29175;51.030;4.606;2023-08-06T09:33:18;0.30;;;0.30;;
43580;SDS011;29175;51.030;4.606;2023-08-06T09:35:45;0.35;;;0.35;;
43580;SDS011;29175;51.030;4.606;2023-08-06T09:38:12;0.30;;;0.30;;
43580;SDS011;29175;51.030;4.606;2023-08-06T09:40:38;8.85;;;1.20;;
43580;SDS011;29175;51.030;4.606;2023-08-06T09:43:05;0.30;;;0.30;;
43580;SDS011;29175;51.030;4.606;2023-08-06T09:45:32;0.30;;;0.30;;
43580;SDS011;29175;51.030;4.606;2023-08-06T09:48:06;0.28;;;0.28;;
43580;SDS011;29175;51.030;4.606;2023-08-06T09:50:33;0.60;;;0.60;;
43580;SDS011;29175;51.030;4.606;2023-08-06T09:53:04;1.75;;;0.95;;
43580;SDS011;29175;51.030;4.606;2023-08-06T09:55:31;0.65;;;0.65;;
43580;SDS011;29175;51.030;4.606;2023-08-06T09:57:58;0.30;;;0.30;;
43580;SDS011;29175;51.030;4.606;2023-08-06T10:00:24;0.20;;;0.20;;
43580;SDS011;29175;51.030;4.606;2023-08-06T10:02:51;0.30;;;0.30;;
43580;SDS011;29175;51.030;4.606;2023-08-06T10:05:20;0.30;;;0.30;;
43580;SDS011;29175;51.030;4.606;2023-08-06T10:07:47;0.40;;;0.40;;
43580;SDS011;29175;51.030;4.606;2023-08-06T10:10:16;0.30;;;0.30;;
43580;SDS011;29175;51.030;4.606;2023-08-06T10:12:54;0.30;;;0.30;;
43580;SDS011;29175;51.030;4.606;2023-08-06T10:15:23;0.77;;;0.77;;
43580;SDS011;29175;51.030;4.606;2023-08-06T10:17:51;0.30;;;0.30;;
43580;SDS011;29175;51.030;4.606;2023-08-06T10:22:59;0.45;;;0.45;;
43580;SDS011;29175;51.030;4.606;2023-08-06T10:25:26;0.30;;;0.30;;
43580;SDS011;29175;51.030;4.606;2023-08-06T10:27:55;0.30;;;0.30;;
43580;SDS011;29175;51.030;4.606;2023-08-06T10:30:21;0.60;;;0.60;;
43580;SDS011;29175;51.030;4.606;2023-08-06T10:38:05;0.30;;;0.30;;
43580;SDS011;29175;51.030;4.606;2023-08-06T10:40:49;0.30;;;0.30;;
43580;SDS011;29175;51.030;4.606;2023-08-06T10:45:58;0.65;;;0.63;;
43580;SDS011;29175;51.030;4.606;2023-08-06T10:51:08;1.10;;;1.00;;
43580;SDS011;29175;51.030;4.606;2023-08-06T10:53:34;0.30;;;0.30;;
43580;SDS011;29175;51.030;4.606;2023-08-06T10:56:02;1.27;;;1.20;;
43580;SDS011;29175;51.030;4.606;2023-08-06T10:58:37;0.30;;;0.30;;
43580;SDS011;29175;51.030;4.606;2023-08-06T11:01:03;0.30;;;0.30;;
43580;SDS011;29175;51.030;4.606;2023-08-06T11:03:29;0.30;;;0.30;;
43580;SDS011;29175;51.030;4.606;2023-08-06T11:05:58;0.38;;;0.38;;
43580;SDS011;29175;51.030;4.606;2023-08-06T11:08:27;0.52;;;0.52;;
43580;SDS011;29175;51.030;4.606;2023-08-06T11:10:54;0.22;;;0.22;;
43580;SDS011;29175;51.030;4.606;2023-08-06T11:13:32;0.30;;;0.30;;
43580;SDS011;29175;51.030;4.606;2023-08-06T11:15:58;0.30;;;0.30;;
43580;SDS011;29175;51.030;4.606;2023-08-06T11:18:24;0.75;;;0.75;;
43580;SDS011;29175;51.030;4.606;2023-08-06T11:20:49;1.25;;;1.15;;
43580;SDS011;29175;51.030;4.606;2023-08-06T11:23:16;0.82;;;0.82;;
43580;SDS011;29175;51.030;4.606;2023-08-06T11:25:45;0.35;;;0.35;;
43580;SDS011;29175;51.030;4.606;2023-08-06T11:28:11;0.40;;;0.40;;
43580;SDS011;29175;51.030;4.606;2023-08-06T11:30:37;0.30;;;0.30;;
43580;SDS011;29175;51.030;4.606;2023-08-06T11:33:03;0.68;;;0.68;;
43580;SDS011;29175;51.030;4.606;2023-08-06T11:35:33;0.30;;;0.30;;
43580;SDS011;29175;51.030;4.606;2023-08-06T11:38:00;0.30;;;0.30;;
43580;SDS011;29175;51.030;4.606;2023-08-06T11:40:27;0.30;;;0.30;;
43580;SDS011;29175;51.030;4.606;2023-08-06T11:42:53;3.40;;;1.48;;
43580;SDS011;29175;51.030;4.606;2023-08-06T11:45:22;0.28;;;0.28;;
43580;SDS011;29175;51.030;4.606;2023-08-06T11:50:24;0.68;;;0.68;;
43580;SDS011;29175;51.030;4.606;2023-08-06T11:52:56;0.30;;;0.30;;
43580;SDS011;29175;51.030;4.606;2023-08-06T11:55:24;0.30;;;0.30;;
43580;SDS011;29175;51.030;4.606;2023-08-06T11:57:50;0.30;;;0.30;;
43580;SDS011;29175;51.030;4.606;2023-08-06T12:00:16;1.45;;;1.05;;
43580;SDS011;29175;51.030;4.606;2023-08-06T12:02:46;0.63;;;0.63;;
43580;SDS011;29175;51.030;4.606;2023-08-06T12:05:15;0.40;;;0.40;;
43580;SDS011;29175;51.030;4.606;2023-08-06T12:07:44;0.30;;;0.30;;
43580;SDS011;29175;51.030;4.606;2023-08-06T12:10:14;0.30;;;0.30;;
43580;SDS011;29175;51.030;4.606;2023-08-06T12:15:08;0.30;;;0.30;;
43580;SDS011;29175;51.030;4.606;2023-08-06T12:17:35;4.22;;;1.05;;
43580;SDS011;29175;51.030;4.606;2023-08-06T12:20:01;0.30;;;0.30;;
43580;SDS011;29175;51.030;4.606;2023-08-06T12:22:29;0.30;;;0.30;;
43580;SDS011;29175;51.030;4.606;2023-08-06T12:25:00;0.30;;;0.30;;
43580;SDS011;29175;51.030;4.606;2023-08-06T12:27:33;0.30;;;0.30;;
43580;SDS011;29175;51.030;4.606;2023-08-06T12:29:59;0.40;;;0.40;;
43580;SDS011;29175;51.030;4.606;2023-08-06T12:32:24;0.63;;;0.63;;
43580;SDS011;29175;51.030;4.606;2023-08-06T12:34:50;0.40;;;0.40;;
43580;SDS011;29175;51.030;4.606;2023-08-06T12:37:16;16.15;;;1.52;;
43580;SDS011;29175;51.030;4.606;2023-08-06T12:39:43;0.30;;;0.30;;
43580;SDS011;29175;51.030;4.606;2023-08-06T12:42:08;0.30;;;0.30;;
43580;SDS011;29175;51.030;4.606;2023-08-06T12:44:36;0.30;;;0.30;;
43580;SDS011;29175;51.030;4.606;2023-08-06T12:47:02;0.93;;;0.93;;
43580;SDS011;29175;51.030;4.606;2023-08-06T12:49:28;8.88;;;1.52;;
43580;SDS011;29175;51.030;4.606;2023-08-06T12:51:54;0.80;;;0.80;;
43580;SDS011;29175;51.030;4.606;2023-08-06T12:54:22;0.30;;;0.30;;
43580;SDS011;29175;51.030;4.606;2023-08-06T12:56:49;0.30;;;0.30;;
43580;SDS011;29175;51.030;4.606;2023-08-06T12:59:17;0.50;;;0.50;;
43580;SDS011;29175;51.030;4.606;2023-08-06T13:01:43;0.52;;;0.52;;
43580;SDS011;29175;51.030;4.606;2023-08-06T13:04:10;0.65;;;0.65;;
43580;SDS011;29175;51.030;4.606;2023-08-06T13:06:39;0.30;;;0.30;;
43580;SDS011;29175;51.030;4.606;2023-08-06T13:09:06;0.45;;;0.45;;
43580;SDS011;29175;51.030;4.606;2023-08-06T13:11:33;0.85;;;0.85;;
43580;SDS011;29175;51.030;4.606;2023-08-06T13:14:07;0.30;;;0.30;;
43580;SDS011;29175;51.030;4.606;2023-08-06T13:16:36;0.30;;;0.30;;
43580;SDS011;29175;51.030;4.606;2023-08-06T13:19:04;0.82;;;0.82;;
43580;SDS011;29175;51.030;4.606;2023-08-06T13:21:35;0.95;;;0.95;;
43580;SDS011;29175;51.030;4.606;2023-08-06T13:24:08;0.30;;;0.30;;
43580;SDS011;29175;51.030;4.606;2023-08-06T13:26:34;0.38;;;0.38;;
43580;SDS011;29175;51.030;4.606;2023-08-06T13:29:06;1.02;;;1.02;;
43580;SDS011;29175;51.030;4.606;2023-08-06T13:31:32;0.32;;;0.32;;
43580;SDS011;29175;51.030;4.606;2023-08-06T13:33:58;0.30;;;0.30;;
43580;SDS011;29175;51.030;4.606;2023-08-06T13:36:27;0.40;;;0.40;;
43580;SDS011;29175;51.030;4.606;2023-08-06T13:41:22;0.40;;;0.40;;
43580;SDS011;29175;51.030;4.606;2023-08-06T13:43:48;2.65;;;1.80;;
43580;SDS011;29175;51.030;4.606;2023-08-06T13:46:15;0.60;;;0.60;;
43580;SDS011;29175;51.030;4.606;2023-08-06T13:48:46;0.30;;;0.30;;
43580;SDS011;29175;51.030;4.606;2023-08-06T13:51:13;0.40;;;0.40;;
43580;SDS011;29175;51.030;4.606;2023-08-06T13:53:39;1.70;;;1.60;;
43580;SDS011;29175;51.030;4.606;2023-08-06T13:56:05;0.40;;;0.40;;
43580;SDS011;29175;51.030;4.606;2023-08-06T13:58:33;0.40;;;0.40;;
43580;SDS011;29175;51.030;4.606;2023-08-06T14:01:00;0.30;;;0.30;;
43580;SDS011;29175;51.030;4.606;2023-08-06T14:03:25;0.30;;;0.30;;
43580;SDS011;29175;51.030;4.606;2023-08-06T14:05:51;2.63;;;0.95;;
43580;SDS011;29175;51.030;4.606;2023-08-06T14:08:20;1.95;;;1.85;;
43580;SDS011;29175;51.030;4.606;2023-08-06T14:10:47;0.43;;;0.43;;
43580;SDS011;29175;51.030;4.606;2023-08-06T14:13:13;0.32;;;0.32;;
43580;SDS011;29175;51.030;4.606;2023-08-06T14:15:40;1.40;;;1.30;;
43580;SDS011;29175;51.030;4.606;2023-08-06T14:18:07;0.40;;;0.40;;
43580;SDS011;29175;51.030;4.606;2023-08-06T14:20:35;0.40;;;0.40;;
43580;SDS011;29175;51.030;4.606;2023-08-06T14:23:02;0.32;;;0.32;;
43580;SDS011;29175;51.030;4.606;2023-08-06T14:25:29;0.30;;;0.30;;
43580;SDS011;29175;51.030;4.606;2023-08-06T14:27:55;0.30;;;0.30;;
43580;SDS011;29175;51.030;4.606;2023-08-06T14:30:21;0.30;;;0.30;;
43580;SDS011;29175;51.030;4.606;2023-08-06T14:32:48;0.63;;;0.63;;
43580;SDS011;29175;51.030;4.606;2023-08-06T14:35:15;0.30;;;0.30;;
43580;SDS011;29175;51.030;4.606;2023-08-06T14:37:42;0.30;;;0.30;;
43580;SDS011;29175;51.030;4.606;2023-08-06T14:40:08;0.65;;;0.65;;
43580;SDS011;29175;51.030;4.606;2023-08-06T14:42:34;0.40;;;0.40;;
43580;SDS011;29175;51.030;4.606;2023-08-06T14:45:00;0.50;;;0.50;;
43580;SDS011;29175;51.030;4.606;2023-08-06T14:47:28;0.40;;;0.40;;
43580;SDS011;29175;51.030;4.606;2023-08-06T14:49:54;0.30;;;0.30;;
43580;SDS011;29175;51.030;4.606;2023-08-06T14:52:20;0.35;;;0.35;;
43580;SDS011;29175;51.030;4.606;2023-08-06T14:54:45;0.30;;;0.30;;
43580;SDS011;29175;51.030;4.606;2023-08-06T14:57:13;0.30;;;0.30;;
43580;SDS011;29175;51.030;4.606;2023-08-06T14:59:39;0.30;;;0.30;;
43580;SDS011;29175;51.030;4.606;2023-08-06T15:02:05;0.30;;;0.30;;
43580;SDS011;29175;51.030;4.606;2023-08-06T15:04:31;1.00;;;1.00;;
43580;SDS011;29175;51.030;4.606;2023-08-06T15:06:57;0.30;;;0.30;;
43580;SDS011;29175;51.030;4.606;2023-08-06T15:09:23;0.47;;;0.47;;
43580;SDS011;29175;51.030;4.606;2023-08-06T15:11:49;0.30;;;0.30;;
43580;SDS011;29175;51.030;4.606;2023-08-06T15:14:16;0.30;;;0.30;;
43580;SDS011;29175;51.030;4.606;2023-08-06T15:16:41;0.30;;;0.30;;
43580;SDS011;29175;51.030;4.606;2023-08-06T15:19:07;0.50;;;0.50;;
43580;SDS011;29175;51.030;4.606;2023-08-06T15:21:33;0.30;;;0.30;;
43580;SDS011;29175;51.030;4.606;2023-08-06T15:23:59;0.20;;;0.20;;